Time;durP1;ratioP1;P1;durP2;ratioP2;P2;SDS_P1;SDS_P2;PMS_P1;PMS_P2;Temp;Humidity;BMP_temperature;BMP_pressure;BME280_temperature;BME280_humidity;BME280_pressure;Samples;Min_cycle;Max_cycle;Signal;HPM_P1;HPM_P2
2022/05/16 00:02:03;;;;;;;5.23;2.40;;;;;;;;;;5024246;28;20201;-74
2022/05/16 00:04:29;;;;;;;3.60;2.20;;;;;;;;;;5022580;28;20529;-75
2022/05/16 00:06:56;;;;;;;3.33;2.17;;;;;;;;;;5019735;28;20213;-75
2022/05/16 00:09:22;;;;;;;3.47;1.90;;;;;;;;;;5020024;28;20211;-75
2022/05/16 00:11:48;;;;;;;2.77;2.20;;;;;;;;;;5015413;28;20356;-75
2022/05/16 00:14:15;;;;;;;2.67;2.17;;;;;;;;;;5016030;28;20562;-76
2022/05/16 00:16:41;;;;;;;2.93;2.43;;;;;;;;;;5013744;28;20187;-75
2022/05/16 00:19:07;;;;;;;2.70;1.80;;;;;;;;;;5015348;28;20206;-75
2022/05/16 00:21:34;;;;;;;2.83;2.10;;;;;;;;;;5015725;28;20663;-76
2022/05/16 00:24:01;;;;;;;4.40;2.00;;;;;;;;;;5018674;28;20203;-75
2022/05/16 00:26:27;;;;;;;3.93;2.10;;;;;;;;;;5018587;28;20622;-75
2022/05/16 00:28:53;;;;;;;3.17;2.13;;;;;;;;;;5022421;28;20320;-74
2022/05/16 00:31:19;;;;;;;4.10;1.90;;;;;;;;;;5023657;28;20262;-76
2022/05/16 00:33:45;;;;;;;3.53;2.37;;;;;;;;;;5015773;28;20642;-74
2022/05/16 00:36:12;;;;;;;6.17;2.20;;;;;;;;;;5027104;28;20178;-75
2022/05/16 00:38:38;;;;;;;3.53;1.87;;;;;;;;;;5017952;28;20345;-74
2022/05/16 00:41:16;;;;;;;2.70;2.10;;;;;;;;;;5026996;28;20277;-74
2022/05/16 00:43:51;;;;;;;2.97;2.10;;;;;;;;;;5019959;28;20265;-76
2022/05/16 00:46:17;;;;;;;3.10;2.10;;;;;;;;;;5015488;28;20251;-77
2022/05/16 00:48:44;;;;;;;4.33;2.00;;;;;;;;;;5015830;28;20210;-75
2022/05/16 00:51:14;;;;;;;4.20;2.10;;;;;;;;;;5024123;28;20530;-75
2022/05/16 00:53:41;;;;;;;2.53;1.73;;;;;;;;;;5029350;28;20183;-76
2022/05/16 00:56:08;;;;;;;3.87;1.80;;;;;;;;;;5029855;28;20216;-76
2022/05/16 00:58:36;;;;;;;3.00;1.93;;;;;;;;;;5020497;28;20206;-77
2022/05/16 01:01:02;;;;;;;2.57;1.90;;;;;;;;;;5029408;28;20209;-76
2022/05/16 01:06:14;;;;;;;2.67;1.70;;;;;;;;;;5029660;28;20739;-76
2022/05/16 01:08:44;;;;;;;3.03;1.90;;;;;;;;;;5021482;28;20333;-77
2022/05/16 01:11:12;;;;;;;4.73;2.13;;;;;;;;;;5022419;28;20197;-76
2022/05/16 01:13:38;;;;;;;4.70;1.90;;;;;;;;;;5031511;28;20190;-76
2022/05/16 01:16:05;;;;;;;2.30;1.80;;;;;;;;;;5029520;28;20277;-76
2022/05/16 01:18:31;;;;;;;5.03;1.93;;;;;;;;;;5027216;28;20299;-75
2022/05/16 01:21:09;;;;;;;2.33;2.10;;;;;;;;;;5025023;28;20193;-76
2022/05/16 01:23:41;;;;;;;2.37;1.90;;;;;;;;;;5030539;28;20191;-76
2022/05/16 01:26:13;;;;;;;2.63;2.10;;;;;;;;;;5026758;28;20662;-78
2022/05/16 01:28:39;;;;;;;2.57;2.00;;;;;;;;;;5033816;28;20222;-77
2022/05/16 01:31:06;;;;;;;4.87;2.20;;;;;;;;;;5035812;28;20183;-76
2022/05/16 01:33:32;;;;;;;3.50;2.13;;;;;;;;;;5019718;28;20190;-76
2022/05/16 01:35:58;;;;;;;3.97;2.20;;;;;;;;;;5021583;28;20608;-75
2022/05/16 01:38:28;;;;;;;2.93;2.00;;;;;;;;;;5027871;28;20300;-75
2022/05/16 01:41:02;;;;;;;2.67;2.03;;;;;;;;;;5019563;28;20186;-76
2022/05/16 01:43:33;;;;;;;4.90;2.20;;;;;;;;;;5021771;28;20194;-76
2022/05/16 01:46:06;;;;;;;3.00;2.07;;;;;;;;;;5017758;28;20240;-77
2022/05/16 01:48:34;;;;;;;2.90;2.00;;;;;;;;;;5025298;28;20608;-76
2022/05/16 01:51:02;;;;;;;4.70;2.13;;;;;;;;;;5018865;28;20218;-75
2022/05/16 01:53:29;;;;;;;4.93;2.10;;;;;;;;;;5018073;28;20176;-78
2022/05/16 01:55:55;;;;;;;3.23;2.30;;;;;;;;;;5029994;28;20214;-77
2022/05/16 01:58:22;;;;;;;3.33;2.17;;;;;;;;;;5017373;28;20241;-75
2022/05/16 02:00:49;;;;;;;4.57;2.40;;;;;;;;;;5017727;28;20278;-75
2022/05/16 02:03:16;;;;;;;4.03;2.23;;;;;;;;;;5018352;28;20187;-76
2022/05/16 02:05:43;;;;;;;4.47;2.70;;;;;;;;;;5015352;28;20182;-76
2022/05/16 02:08:10;;;;;;;3.20;2.70;;;;;;;;;;5014813;28;20211;-75
2022/05/16 02:10:36;;;;;;;5.00;2.80;;;;;;;;;;5029631;28;20197;-77
2022/05/16 02:13:03;;;;;;;4.93;2.73;;;;;;;;;;5030064;28;20177;-76
2022/05/16 02:15:31;;;;;;;2.60;2.30;;;;;;;;;;5018089;28;20202;-76
2022/05/16 02:17:57;;;;;;;4.50;2.37;;;;;;;;;;5036478;28;20210;-75
2022/05/16 02:20:24;;;;;;;4.23;2.60;;;;;;;;;;5015139;28;20183;-77
2022/05/16 02:25:37;;;;;;;3.10;2.37;;;;;;;;;;5018829;28;20186;-76
2022/05/16 02:28:04;;;;;;;3.30;2.43;;;;;;;;;;5019639;28;20222;-76
2022/05/16 02:30:31;;;;;;;4.57;2.40;;;;;;;;;;5020297;28;20178;-76
2022/05/16 02:32:57;;;;;;;6.30;3.10;;;;;;;;;;5018865;28;20189;-76
2022/05/16 02:35:23;;;;;;;4.90;2.93;;;;;;;;;;5020260;28;20187;-76
2022/05/16 02:37:49;;;;;;;4.30;2.93;;;;;;;;;;5017972;28;20206;-76
2022/05/16 02:40:16;;;;;;;4.27;2.87;;;;;;;;;;5019937;28;20193;-76
2022/05/16 02:42:43;;;;;;;5.60;3.57;;;;;;;;;;5017217;28;20317;-76
2022/05/16 02:45:10;;;;;;;5.50;3.30;;;;;;;;;;5020375;28;20205;-76
2022/05/16 02:47:36;;;;;;;3.37;2.80;;;;;;;;;;5024684;28;20672;-76
2022/05/16 02:50:03;;;;;;;3.63;3.10;;;;;;;;;;5028019;28;20187;-75
2022/05/16 02:52:30;;;;;;;3.63;2.97;;;;;;;;;;5029846;28;20294;-76
2022/05/16 02:54:56;;;;;;;3.87;2.73;;;;;;;;;;5029691;28;20185;-76
2022/05/16 02:57:22;;;;;;;5.50;3.10;;;;;;;;;;5026001;28;20309;-75
2022/05/16 02:59:48;;;;;;;6.10;3.87;;;;;;;;;;5030328;28;20622;-75
2022/05/16 03:02:14;;;;;;;4.77;4.00;;;;;;;;;;5030785;28;20195;-75
2022/05/16 03:04:40;;;;;;;4.67;3.70;;;;;;;;;;5023213;28;20178;-75
2022/05/16 03:07:07;;;;;;;6.03;4.63;;;;;;;;;;5033831;28;20569;-77
2022/05/16 03:09:33;;;;;;;6.37;4.17;;;23.50;42.20;;;;;;5033241;28;20269;-75
2022/05/16 03:11:59;;;;;;;6.47;4.50;;;19.10;54.70;;;;;;5025873;28;20171;-75
2022/05/16 03:14:26;;;;;;;7.03;4.27;;;18.80;55.00;;;;;;5034346;28;20867;-75
2022/05/16 03:16:52;;;;;;;6.03;3.50;;;18.60;55.50;;;;;;5032596;28;20181;-75
2022/05/16 03:19:19;;;;;;;4.83;4.20;;;18.70;55.10;;;;;;5022377;28;20677;-76
2022/05/16 03:21:45;;;;;;;6.37;4.10;;;18.70;55.70;;;;;;5030230;28;20230;-75
2022/05/16 03:24:11;;;;;;;5.53;3.87;;;18.80;55.30;;;;;;5028030;28;20263;-76
2022/05/16 03:26:38;;;;;;;4.10;3.60;;;18.80;55.20;;;;;;5033001;28;20185;-76
2022/05/16 03:29:07;;;;;;;4.53;3.67;;;18.90;55.20;;;;;;5033182;28;20221;-75
2022/05/16 03:31:34;;;;;;;5.50;3.50;;;18.80;55.30;;;;;;5028775;28;20190;-75
2022/05/16 03:34:00;;;;;;;4.93;3.70;;;18.80;55.40;;;;;;5033411;28;20281;-76
2022/05/16 03:36:26;;;;;;;5.00;3.43;;;18.70;55.40;;;;;;5028845;28;20187;-77
2022/05/16 03:41:36;;;;;;;5.00;3.57;;;18.60;56.00;;;;;;5031718;28;20729;-76
2022/05/16 03:44:02;;;;;;;5.77;4.10;;;18.60;56.10;;;;;;5020541;28;20273;-75
2022/05/16 03:46:28;;;;;;;6.10;4.20;;;18.60;56.10;;;;;;5023723;28;20183;-76
2022/05/16 03:48:54;;;;;;;4.43;3.80;;;18.50;56.30;;;;;;5016630;28;20211;-75
2022/05/16 03:51:20;;;;;;;6.17;4.23;;;18.40;56.50;;;;;;5041647;28;20185;-75
2022/05/16 03:53:46;;;;;;;6.97;3.97;;;18.30;56.80;;;;;;5021732;28;20201;-76
2022/05/16 03:56:22;;;;;;;5.60;4.53;;;18.30;56.80;;;;;;5020536;28;20175;-76
2022/05/16 03:58:48;;;;;;;5.60;4.60;;;18.20;57.20;;;;;;5025625;28;20731;-75
2022/05/16 04:01:14;;;;;;;5.30;4.47;;;18.10;57.50;;;;;;5021903;28;20409;-75
2022/05/16 04:03:40;;;;;;;5.70;4.40;;;18.10;57.50;;;;;;5030226;28;20582;-75
2022/05/16 04:06:06;;;;;;;6.20;3.77;;;18.20;57.40;;;;;;5025944;28;20182;-76
2022/05/16 04:08:32;;;;;;;5.70;4.20;;;18.20;57.50;;;;;;5021945;28;20694;-75
2022/05/16 04:11:00;;;;;;;4.67;3.93;;;18.20;57.40;;;;;;5024324;28;20195;-76
2022/05/16 04:13:26;;;;;;;6.00;4.30;;;18.20;57.60;;;;;;5023375;28;20174;-75
2022/05/16 04:15:53;;;;;;;7.23;4.47;;;18.20;57.70;;;;;;5025068;28;20183;-76
2022/05/16 04:18:19;;;;;;;6.87;4.97;;;18.10;58.00;;;;;;5032969;28;20269;-77
2022/05/16 04:20:45;;;;;;;6.53;4.37;;;18.20;57.80;;;;;;5029397;28;20199;-75
2022/05/16 04:23:12;;;;;;;6.63;4.27;;;18.20;58.10;;;;;;5018084;28;20195;-74
2022/05/16 04:25:40;;;;;;;5.33;4.20;;;18.20;58.20;;;;;;5018883;28;20189;-77
2022/05/16 04:28:08;;;;;;;6.43;4.00;;;18.30;57.90;;;;;;5017011;28;20230;-77
2022/05/16 04:30:37;;;;;;;5.67;4.30;;;18.30;57.90;;;;;;5019786;28;20602;-77
2022/05/16 04:33:03;;;;;;;6.67;4.60;;;18.40;57.90;;;;;;5015484;28;20212;-76
2022/05/16 04:35:30;;;;;;;6.50;4.20;;;18.60;57.80;;;;;;5028326;28;20194;-75
2022/05/16 04:37:56;;;;;;;4.60;3.97;;;18.60;58.00;;;;;;5027302;28;20214;-75
2022/05/16 04:40:22;;;;;;;7.03;4.63;;;18.60;57.90;;;;;;5026043;28;20820;-75
2022/05/16 04:42:49;;;;;;;5.97;4.00;;;;;;;;;;5016511;28;20183;-75
2022/05/16 04:45:15;;;;;;;6.53;4.47;;;;;;;;;;5025504;28;20266;-75
2022/05/16 04:47:42;;;;;;;6.73;4.30;;;;;;;;;;5029750;28;20222;-76
2022/05/16 04:50:08;;;;;;;4.63;4.10;;;;;;;;;;5029036;28;20214;-75
2022/05/16 04:52:35;;;;;;;4.90;4.37;;;;;;;;;;5024566;28;20662;-75
2022/05/16 04:55:01;;;;;;;4.77;3.70;;;;;;;;;;5024117;28;20185;-75
2022/05/16 04:57:27;;;;;;;3.90;3.50;;;;;;;;;;5027377;28;20549;-75
2022/05/16 04:59:53;;;;;;;4.57;3.77;;;;;;;;;;5028534;28;20183;-75
2022/05/16 05:02:20;;;;;;;5.37;3.67;;;;;;;;;;5023254;28;20616;-75
2022/05/16 05:04:46;;;;;;;6.20;3.73;;;;;;;;;;5025497;28;20191;-75
2022/05/16 05:07:12;;;;;;;6.57;4.13;;;;;;;;;;5022357;28;20202;-75
2022/05/16 05:15:11;;;;;;;7.53;4.80;;;;;;;;;;5025513;28;20191;-75
2022/05/16 05:17:37;;;;;;;4.70;4.20;;;;;;;;;;5041065;28;20241;-75
2022/05/16 05:20:04;;;;;;;6.03;4.13;;;;;;;;;;5021965;28;20190;-76
2022/05/16 05:22:31;;;;;;;4.90;4.07;;;;;;;;;;5023511;28;20187;-76
2022/05/16 05:24:57;;;;;;;7.70;3.90;;;;;;;;;;5017190;28;20187;-79
2022/05/16 05:27:23;;;;;;;4.50;3.80;;;;;;;;;;5026475;28;20215;-79
2022/05/16 05:29:51;;;;;;;7.50;4.30;;;;;;;;;;5031559;28;20261;-77
2022/05/16 05:32:17;;;;;;;6.77;4.60;;;;;;;;;;5026223;28;20529;-75
2022/05/16 05:34:43;;;;;;;6.23;4.00;;;;;;;;;;5027370;28;20277;-76
2022/05/16 05:37:10;;;;;;;6.10;3.87;;;;;;;;;;5027153;28;20201;-76
2022/05/16 05:39:38;;;;;;;6.90;3.73;;;;;;;;;;5028436;28;20217;-76
2022/05/16 05:42:04;;;;;;;7.53;3.83;;;;;;;;;;5026237;28;20282;-78
2022/05/16 05:44:30;;;;;;;5.67;3.73;;;;;;;;;;5031613;28;20297;-84
2022/05/16 05:46:59;;;;;;;5.53;4.13;;;;;;;;;;5025252;28;20197;-74
2022/05/16 05:49:25;;;;;;;7.07;4.00;;;;;;;;;;5024773;28;20324;-73
2022/05/16 05:51:51;;;;;;;7.53;4.20;;;;;;;;;;5022764;28;20197;-74
2022/05/16 05:54:18;;;;;;;9.37;4.40;;;;;;;;;;5027872;28;20260;-74
2022/05/16 05:56:44;;;;;;;11.30;5.00;;;;;;;;;;5031586;28;20256;-74
2022/05/16 05:59:10;;;;;;;6.67;4.10;;;;;;;;;;5031068;28;20194;-74
2022/05/16 06:01:36;;;;;;;6.97;4.30;;;;;;;;;;5029985;28;20195;-74
2022/05/16 06:04:03;;;;;;;8.80;4.23;;;;;;;;;;5030123;28;20240;-74
2022/05/16 06:06:29;;;;;;;8.90;4.40;;;;;;;;;;5026252;28;20192;-74
2022/05/16 06:08:56;;;;;;;7.90;4.80;;;;;;;;;;5030795;28;20567;-74
2022/05/16 06:11:27;;;;;;;7.47;5.00;;;;;;;;;;5018365;28;20556;-74
2022/05/16 06:13:54;;;;;;;5.87;3.83;;;;;;;;;;5016280;28;20254;-74
2022/05/16 06:16:20;;;;;;;9.17;4.37;;;;;;;;;;5018163;28;20163;-73
2022/05/16 06:18:46;;;;;;;6.43;3.60;;;;;;;;;;5019771;28;20224;-73
2022/05/16 06:21:12;;;;;;;8.70;4.50;;;;;;;;;;5031000;28;20698;-73
2022/05/16 06:23:38;;;;;;;9.33;4.63;;;;;;;;;;5031072;28;20322;-72
2022/05/16 06:26:05;;;;;;;7.93;4.27;;;;;;;;;;5030407;28;20224;-73
2022/05/16 06:28:37;;;;;;;6.50;3.80;;;;;;;;;;5029681;28;20209;-73
2022/05/16 06:31:03;;;;;;;6.80;4.10;;;;;;;;;;5027873;28;20189;-73
2022/05/16 06:33:30;;;;;;;8.20;4.20;;;;;;;;;;5026064;28;20186;-73
2022/05/16 06:35:57;;;;;;;6.90;3.93;;;;;;;;;;5027632;28;20229;-72
2022/05/16 06:38:25;;;;;;;6.60;4.60;;;;;;;;;;5029065;28;20720;-72
2022/05/16 06:40:51;;;;;;;6.23;3.90;;;;;;;;;;5027589;28;20928;-73
2022/05/16 06:43:18;;;;;;;6.83;4.10;;;;;;;;;;5029750;28;20186;-73
2022/05/16 06:45:44;;;;;;;9.47;4.00;;;;;;;;;;5028159;28;20186;-73
2022/05/16 06:48:11;;;;;;;6.23;4.13;;;;;;;;;;5028608;28;20214;-73
2022/05/16 06:50:38;;;;;;;9.27;4.53;;;;;;;;;;5028604;28;20304;-72
2022/05/16 06:53:05;;;;;;;7.53;4.17;;;;;;;;;;5028429;28;20178;-73
2022/05/16 06:55:31;;;;;;;9.53;4.23;;;;;;;;;;5029027;28;20178;-73
2022/05/16 06:57:57;;;;;;;7.33;3.60;;;;;;;;;;5028572;28;20550;-72
2022/05/16 07:00:26;;;;;;;7.37;3.97;;;;;;;;;;5027822;28;20602;-72
2022/05/16 07:02:52;;;;;;;8.40;4.00;;;;;;;;;;5028445;28;20201;-72
2022/05/16 07:05:18;;;;;;;6.33;3.77;;;;;;;;;;5028770;28;20601;-72
2022/05/16 07:07:44;;;;;;;8.20;3.77;;;;;;;;;;5028319;28;20214;-73
2022/05/16 07:10:12;;;;;;;11.57;3.80;;;;;;;;;;5026916;28;20181;-73
2022/05/16 07:12:38;;;;;;;9.60;3.70;;;;;;;;;;5028470;28;20194;-73
2022/05/16 07:15:05;;;;;;;9.17;3.63;;;;;;;;;;5026966;28;20233;-73
2022/05/16 07:17:31;;;;;;;7.37;3.30;;;;;;;;;;5027171;28;20206;-73
2022/05/16 07:19:57;;;;;;;6.07;3.50;;;;;;;;;;5027759;28;20190;-74
2022/05/16 07:22:23;;;;;;;7.80;3.70;;;;;;;;;;5028050;28;20182;-73
2022/05/16 07:24:55;;;;;;;8.77;3.80;;;;;;;;;;5027981;28;20194;-73
2022/05/16 07:30:08;;;;;;;9.30;3.67;;;;;;;;;;5023003;28;20662;-73
2022/05/16 07:32:41;;;;;;;5.40;3.53;;;;;;;;;;5023328;28;20217;-73
2022/05/16 07:35:09;;;;;;;7.20;3.90;;;;;;;;;;5026831;28;20175;-73
2022/05/16 07:37:35;;;;;;;5.10;3.70;;;;;;;;;;5026756;28;20290;-73
2022/05/16 07:40:08;;;;;;;6.47;3.50;;;;;;;;;;5026154;28;20179;-73
2022/05/16 07:42:35;;;;;;;6.27;3.80;;;;;;;;;;5027636;28;20651;-73
2022/05/16 07:45:01;;;;;;;5.83;3.63;;;;;;;;;;5029465;28;20197;-73
2022/05/16 07:47:30;;;;;;;4.80;3.27;;;;;;;;;;5031162;28;20336;-73
2022/05/16 07:49:58;;;;;;;7.30;4.00;;;;;;;;;;5030699;28;20198;-73
2022/05/16 07:52:24;;;;;;;6.67;3.80;;;;;;;;;;5027894;28;20208;-73
2022/05/16 07:54:51;;;;;;;6.00;3.93;;;;;;;;;;5030413;28;20178;-73
2022/05/16 07:57:17;;;;;;;6.43;3.93;;;;;;;;;;5028945;28;20211;-73
2022/05/16 07:59:45;;;;;;;7.43;4.13;;;;;;;;;;5030644;28;20240;-73
2022/05/16 08:02:12;;;;;;;12.33;4.07;;;;;;;;;;5024573;28;20366;-73
2022/05/16 08:04:39;;;;;;;6.20;3.63;;;;;;;;;;5030613;28;20217;-73
2022/05/16 08:07:05;;;;;;;5.57;3.50;;;;;;;;;;5030370;28;20182;-73
2022/05/16 08:12:35;;;;;;;4.80;3.97;;;;;;;;;;5023533;28;20179;-73
2022/05/16 08:15:01;;;;;;;6.33;4.03;;;;;;;;;;5028525;28;20190;-73
2022/05/16 08:17:29;;;;;;;5.43;4.07;;;;;;;;;;5027595;28;20226;-73
2022/05/16 08:19:58;;;;;;;5.30;3.70;;;;;;;;;;5044904;28;20724;-73
2022/05/16 08:22:42;;;;;;;6.97;3.70;;;;;;;;;;5029526;28;20166;-74
2022/05/16 08:25:09;;;;;;;6.67;3.77;;;;;;;;;;5028355;28;20713;-73
2022/05/16 08:27:35;;;;;;;6.47;3.93;;;;;;;;;;5028613;28;20214;-73
2022/05/16 08:30:01;;;;;;;5.37;3.83;;;;;;;;;;5032275;28;20220;-72
2022/05/16 08:32:27;;;;;;;8.83;3.93;;;;;;;;;;5029974;28;20289;-74
2022/05/16 08:34:58;;;;;;;10.63;4.40;;;;;;;;;;5028378;28;20195;-72
2022/05/16 08:40:10;;;;;;;6.53;4.20;;;;;;;;;;5030090;28;20192;-70
2022/05/16 08:42:57;;;;;;;5.33;3.93;;;;;;;;;;5027075;28;20258;-70
2022/05/16 08:45:26;;;;;;;5.97;4.07;;;;;;;;;;5027727;28;20560;-70
2022/05/16 08:47:55;;;;;;;7.80;4.17;;;;;;;;;;5024514;28;20238;-71
2022/05/16 08:50:33;;;;;;;8.03;4.20;;;;;;;;;;5024115;28;20178;-72
2022/05/16 08:52:59;;;;;;;7.43;3.97;;;;;;;;;;5027606;28;20211;-71
2022/05/16 08:55:28;;;;;;;7.70;4.43;;;;;;;;;;5025599;28;20191;-71
2022/05/16 08:57:57;;;;;;;7.00;3.97;;;;;;;;;;5027170;28;20221;-72
2022/05/16 09:00:29;;;;;;;7.13;4.20;;;;;;;;;;5024198;28;20264;-72
2022/05/16 09:02:56;;;;;;;5.20;4.20;;;;;;;;;;5025430;28;20178;-71
2022/05/16 09:05:29;;;;;;;8.47;4.60;;;;;;;;;;5028592;28;20193;-71
2022/05/16 09:07:58;;;;;;;7.67;4.07;;;;;;;;;;5026456;28;20289;-71
2022/05/16 09:10:25;;;;;;;7.73;4.50;;;;;;;;;;5025949;28;20233;-72
2022/05/16 09:12:52;;;;;;;7.30;3.93;;;;;;;;;;5028779;28;20190;-72
2022/05/16 09:15:19;;;;;;;9.07;4.73;;;;;;;;;;5025471;28;20632;-72
2022/05/16 09:17:53;;;;;;;7.03;4.13;;;;;;;;;;5025093;28;20745;-72
2022/05/16 09:20:32;;;;;;;5.93;4.07;;;;;;;;;;5025169;28;20991;-72
2022/05/16 09:23:10;;;;;;;5.90;4.47;;;;;;;;;;5026581;28;20218;-72
2022/05/16 09:25:41;;;;;;;6.33;4.00;;;;;;;;;;5025579;28;20689;-72
2022/05/16 09:30:57;;;;;;;6.27;4.10;;;;;;;;;;5025975;28;20182;-72
2022/05/16 09:33:25;;;;;;;9.63;4.70;;;;;;;;;;5026117;28;20170;-71
2022/05/16 09:36:12;;;;;;;6.97;4.67;;;;;;;;;;5022496;28;20572;-71
2022/05/16 09:38:43;;;;;;;7.13;4.07;;;;;;;;;;5026045;28;21491;-72
2022/05/16 09:41:33;;;;;;;8.53;4.63;;;;;;;;;;5026830;28;20190;-72
2022/05/16 09:44:27;;;;;;;8.00;4.40;;;;;;;;;;5026798;28;20206;-72
2022/05/16 09:47:13;;;;;;;8.60;4.77;;;;;;;;;;5021479;28;20205;-71
2022/05/16 09:49:41;;;;;;;8.13;4.60;;;;;;;;;;5020610;28;20196;-72
2022/05/16 09:52:14;;;;;;;7.07;4.77;;;;;;;;;;5020254;28;20191;-72
2022/05/16 09:54:40;;;;;;;8.03;4.40;;;;;;;;;;5026601;28;20178;-72
2022/05/16 09:57:12;;;;;;;7.33;4.50;;;;;;;;;;5020806;28;20241;-72
2022/05/16 09:59:39;;;;;;;8.43;4.67;;;;;;;;;;5017992;28;20186;-72
2022/05/16 10:02:14;;;;;;;7.23;4.80;;;;;;;;;;5023789;28;20206;-72
2022/05/16 10:04:42;;;;;;;6.50;4.83;;;;;;;;;;5026184;28;20697;-72
2022/05/16 10:07:09;;;;;;;6.57;5.07;;;;;;;;;;5020012;28;20205;-72
2022/05/16 10:09:37;;;;;;;5.63;4.80;;;;;;;;;;5025133;28;20206;-72
2022/05/16 10:12:07;;;;;;;6.87;4.70;;;;;;;;;;5027032;28;20178;-72
2022/05/16 10:14:36;;;;;;;8.90;4.90;;;;;;;;;;5022863;28;20664;-73
2022/05/16 10:17:03;;;;;;;7.13;4.80;;;;;;;;;;5020491;28;20178;-72
2022/05/16 10:19:32;;;;;;;10.03;4.77;;;;;;;;;;5042485;28;20220;-73
2022/05/16 10:22:01;;;;;;;7.23;5.17;;;;;;;;;;5020946;28;20696;-73
2022/05/16 10:24:31;;;;;;;7.37;4.70;;;;;;;;;;5035433;28;20661;-74
2022/05/16 10:26:59;;;;;;;7.17;4.67;;;;;;;;;;5023675;28;20192;-71
2022/05/16 10:29:33;;;;;;;9.50;4.47;;;;;;;;;;5026141;28;20189;-74
2022/05/16 10:34:58;;;;;;;7.33;4.60;;;;;;;;;;5022036;28;20241;-70
2022/05/16 10:37:25;;;;;;;6.37;4.40;;;;;;;;;;5025527;28;20308;-70
2022/05/16 10:40:09;;;;;;;8.33;4.43;;;;;;;;;;5022534;28;20976;-70
2022/05/16 10:42:39;;;;;;;6.33;4.30;;;;;;;;;;5023276;28;20202;-70
2022/05/16 10:45:25;;;;;;;9.27;4.57;;;;;;;;;;5023405;28;20259;-70
2022/05/16 10:47:53;;;;;;;9.30;4.60;;;;;;;;;;5022679;28;21113;-70
2022/05/16 10:50:30;;;;;;;7.27;4.63;;;;;;;;;;5022018;28;20178;-70
2022/05/16 10:52:59;;;;;;;7.30;4.17;;;;;;;;;;5023062;28;20182;-70
2022/05/16 10:55:29;;;;;;;9.07;4.10;;;;;;;;;;5023322;28;20174;-71
2022/05/16 10:58:07;;;;;;;7.83;4.23;;;;;;;;;;5022984;28;20236;-72
2022/05/16 11:00:53;;;;;;;9.10;4.30;;;;;;;;;;5021314;28;20220;-73
2022/05/16 11:03:31;;;;;;;9.53;4.00;;;;;;;;;;5022364;28;20186;-73
2022/05/16 11:06:06;;;;;;;5.77;3.73;;;;;;;;;;5017726;28;20237;-74
2022/05/16 11:08:36;;;;;;;20.80;5.60;;;;;;;;;;5021476;28;20300;-73
2022/05/16 11:11:05;;;;;;;10.80;5.03;;;;;;;;;;5019459;28;20202;-74
2022/05/16 11:13:52;;;;;;;5.93;3.40;;;;;;;;;;5021356;28;20186;-73
2022/05/16 11:16:21;;;;;;;6.47;3.27;;;;;;;;;;5025523;28;20202;-72
2022/05/16 11:18:50;;;;;;;6.33;4.13;;;;;;;;;;5019282;28;20219;-73
2022/05/16 11:21:32;;;;;;;4.43;3.30;;;;;;;;;;5028128;28;20183;-73
2022/05/16 11:24:10;;;;;;;7.60;3.57;;;;;;;;;;5026814;28;20190;-74
2022/05/16 11:26:39;;;;;;;4.77;3.73;;;;;;;;;;5026473;28;20669;-74
2022/05/16 11:29:17;;;;;;;4.70;3.90;;;;;;;;;;5028690;28;20654;-73
2022/05/16 11:31:53;;;;;;;6.40;3.40;;;;;;;;;;5028148;28;20181;-73
2022/05/16 11:34:27;;;;;;;6.60;3.67;;;;;;;;;;5027336;28;20182;-74
2022/05/16 11:37:00;;;;;;;8.37;4.20;;;;;;;;;;5027044;28;20228;-72
2022/05/16 11:39:33;;;;;;;7.87;4.30;;;;;;;;;;5026931;28;20237;-72
2022/05/16 11:42:05;;;;;;;10.20;4.50;;;;;;;;;;5026990;28;20710;-71
2022/05/16 11:44:48;;;;;;;6.97;4.20;;;;;;;;;;5027336;28;20190;-71
2022/05/16 11:47:21;;;;;;;7.53;4.40;;;;;;;;;;5029296;28;20178;-71
2022/05/16 11:50:07;;;;;;;12.60;4.00;;;;;;;;;;5025362;28;20174;-72
2022/05/16 11:52:36;;;;;;;5.73;3.37;;;;;;;;;;5008400;28;20221;-72
2022/05/16 12:00:31;;;;;;;5.70;3.17;;;;;;;;;;5027486;28;20186;-71
2022/05/16 12:00:51;;;;;;;4.53;2.73;;;;;;;;;;5026376;28;20226;-71
2022/05/16 12:03:20;;;;;;;8.07;2.83;;;;;;;;;;5043482;28;20198;-71
2022/05/16 12:05:51;;;;;;;6.87;2.80;;;;;;;;;;5026715;28;20643;-71
2022/05/16 12:08:17;;;;;;;4.40;2.70;;;;;;;;;;5028169;28;20588;-71
2022/05/16 12:10:57;;;;;;;6.23;2.90;;;;;;;;;;5027689;28;20607;-72
2022/05/16 12:13:28;;;;;;;14.07;2.47;;;;;;;;;;5028490;28;20301;-71
2022/05/16 12:16:13;;;;;;;6.47;2.50;;;;;;;;;;5026227;28;20178;-71
2022/05/16 12:18:49;;;;;;;9.33;2.90;;;;;;;;;;5025660;28;20226;-71
2022/05/16 12:21:18;;;;;;;4.73;2.23;;;;;;;;;;5029653;28;20564;-71
2022/05/16 12:23:47;;;;;;;4.77;2.27;;;;;;;;;;5025382;28;20237;-71
2022/05/16 12:26:30;;;;;;;7.80;1.80;;;;;;;;;;5028113;28;20657;-70
2022/05/16 12:29:08;;;;;;;4.03;1.90;;;;;;;;;;5025438;28;20217;-71
2022/05/16 12:31:49;;;;;;;12.90;2.53;;;;;;;;;;5027246;28;20564;-72
2022/05/16 12:34:31;;;;;;;6.13;2.20;;;;;;;;;;5026349;28;20841;-71
2022/05/16 12:36:58;;;;;;;4.40;2.03;;;;;;;;;;5026718;28;20233;-71
2022/05/16 12:39:27;;;;;;;4.47;1.80;;;;;;;;;;5024052;28;20183;-72
2022/05/16 12:41:54;;;;;;;4.20;1.80;;;;;;;;;;5025084;28;20227;-71
2022/05/16 12:44:29;;;;;;;4.97;1.87;;;;;;;;;;5023630;28;20282;-72
2022/05/16 12:47:01;;;;;;;4.97;1.90;;;;;;;;;;5040769;28;20619;-72
2022/05/16 12:49:57;;;;;;;3.67;1.70;;;;;;;;;;5022113;28;20756;-71
2022/05/16 12:52:39;;;;;;;2.80;1.70;;;;;;;;;;4987054;28;20188;-72
2022/05/16 12:55:06;;;;;;;3.93;1.60;;;;;;;;;;5028851;28;20264;-75
2022/05/16 12:57:48;;;;;;;4.97;1.67;;;;;;;;;;5026014;28;20724;-76
2022/05/16 13:00:20;;;;;;;3.50;1.60;;;;;;;;;;5027994;28;20183;-75
2022/05/16 13:02:48;;;;;;;6.20;1.60;;;;;;;;;;5026723;28;20699;-77
2022/05/16 13:05:24;;;;;;;3.00;1.50;;;;;;;;;;5022566;28;20194;-73
2022/05/16 13:07:58;;;;;;;3.13;1.90;;;;;;;;;;5023998;28;20248;-73
2022/05/16 13:10:26;;;;;;;3.77;1.60;;;;;;;;;;5026398;28;20213;-73
2022/05/16 13:13:10;;;;;;;3.43;1.77;;;;;;;;;;5026760;28;20202;-73
2022/05/16 13:15:40;;;;;;;3.10;1.50;;;;;;;;;;5024548;28;20184;-73
2022/05/16 13:18:11;;;;;;;1.87;1.27;;;;;;;;;;5028206;28;20226;-72
2022/05/16 13:20:40;;;;;;;3.17;1.60;;;;;;;;;;5027092;28;20225;-73
2022/05/16 13:23:06;;;;;;;2.80;1.30;;;;;;;;;;5025830;28;20195;-73
2022/05/16 13:29:21;;;;;;;4.83;1.50;;;;;;;;;;5027091;28;20193;-73
2022/05/16 13:31:10;;;;;;;4.33;1.90;;;;;;;;;;5028004;28;20315;-73
2022/05/16 13:33:38;;;;;;;4.57;2.07;;;;;;;;;;5026986;28;20184;-73
2022/05/16 13:36:14;;;;;;;4.73;2.13;;;;;;;;;;5026991;28;20175;-72
2022/05/16 13:38:40;;;;;;;3.00;1.97;;;;;;;;;;5030380;28;20213;-73
2022/05/16 13:41:06;;;;;;;7.90;2.10;;;;;;;;;;5020044;28;20183;-73
2022/05/16 13:43:32;;;;;;;4.10;2.00;;;;;;;;;;5027848;28;20271;-73
2022/05/16 13:46:02;;;;;;;6.00;2.30;;;;;;;;;;5029067;28;20650;-73
2022/05/16 13:48:29;;;;;;;4.07;2.20;;;;;;;;;;5028898;28;20309;-72
2022/05/16 13:50:58;;;;;;;5.03;2.30;;;;;;;;;;5028443;28;20179;-73
2022/05/16 13:53:26;;;;;;;3.70;2.20;;;;;;;;;;5029201;28;20271;-72
2022/05/16 13:55:56;;;;;;;6.23;2.50;;;;;;;;;;5027443;28;20705;-72
2022/05/16 13:58:42;;;;;;;3.10;1.90;;;;;;;;;;5015050;28;20584;-73
2022/05/16 14:01:21;;;;;;;5.67;2.20;;;;;;;;;;5027449;28;20186;-73
2022/05/16 14:03:55;;;;;;;3.47;2.03;;;;;;;;;;5024333;28;20186;-72
2022/05/16 14:06:42;;;;;;;3.73;2.23;;;;;;;;;;5030050;28;20183;-72
2022/05/16 14:09:19;;;;;;;3.67;1.87;;;;;;;;;;5028872;28;20698;-73
2022/05/16 14:11:46;;;;;;;3.00;1.80;;;;;;;;;;5026820;28;20200;-72
2022/05/16 14:14:13;;;;;;;3.63;1.97;;;;;;;;;;5027330;28;20241;-73
2022/05/16 14:16:41;;;;;;;4.83;2.00;;;;;;;;;;5032660;28;20181;-73
2022/05/16 14:19:12;;;;;;;4.20;1.60;;;;;;;;;;5020774;28;20237;-74
2022/05/16 14:21:53;;;;;;;3.77;1.80;;;;;;;;;;5025076;28;20186;-73
2022/05/16 14:24:21;;;;;;;2.90;1.77;;;;;;;;;;5015196;28;20623;-72
2022/05/16 14:26:49;;;;;;;5.03;1.80;;;;;;;;;;5024613;28;20221;-72
2022/05/16 14:29:18;;;;;;;4.70;1.83;;;;;;;;;;5024842;28;20229;-72
2022/05/16 14:31:46;;;;;;;3.20;1.60;;;;;;;;;;5018056;28;20256;-73
2022/05/16 14:34:27;;;;;;;3.23;1.70;;;;;;;;;;5030949;28;20183;-73
2022/05/16 14:37:04;;;;;;;3.50;1.80;;;;;;;;;;5029409;28;20269;-73
2022/05/16 14:39:32;;;;;;;5.20;1.83;;;;;;;;;;5023614;28;20661;-72
2022/05/16 14:42:09;;;;;;;4.03;1.80;;;;;;;;;;5028967;28;20282;-73
2022/05/16 14:44:38;;;;;;;3.37;1.90;;;;;;;;;;5025835;28;20214;-75
2022/05/16 14:47:13;;;;;;;4.87;1.90;;;;;;;;;;5037491;28;20212;-75
2022/05/16 14:49:40;;;;;;;5.97;2.00;;;;;;;;;;5030128;28;20199;-73
2022/05/16 14:52:07;;;;;;;4.47;2.10;;;;;;;;;;5032638;28;20170;-74
2022/05/16 14:54:46;;;;;;;4.03;1.90;;;;;;;;;;5029431;28;20331;-74
2022/05/16 14:57:13;;;;;;;4.13;2.00;;;;;;;;;;5028972;28;20235;-74
2022/05/16 14:59:39;;;;;;;5.23;2.07;;;;;;;;;;5032067;28;20190;-74
2022/05/16 15:04:51;;;;;;;4.63;2.17;;;;;;;;;;5050109;28;20206;-76
2022/05/16 15:07:19;;;;;;;3.47;1.97;;;;;;;;;;5034601;28;20265;-75
2022/05/16 15:09:45;;;;;;;3.90;2.03;;;;;;;;;;5033067;28;20647;-75
2022/05/16 15:12:12;;;;;;;3.77;2.20;;;;;;;;;;5037300;28;20193;-75
2022/05/16 15:14:38;;;;;;;6.37;2.47;;;;;;;;;;5038082;28;20178;-75
2022/05/16 15:17:06;;;;;;;5.10;2.47;;;;;;;;;;5034441;28;20186;-74
2022/05/16 15:19:32;;;;;;;5.80;2.40;;;;;;;;;;5034926;28;20183;-75